Sanatoga, Pennsylvania
Current Conditions -  °F | °C
As of 6:54 PM on Saturday 22 Nov 2014 (Local Time) from KPTW Reporting Station
Overcast Overcast  
Wind Chill: 40°   Ceiling: 6000
Heat Index: 40°   Visibility: 10mi
Dew Point: 20°   Wind: 3mph
Humidity: 45%   Direction: 210°SSW
Pressure: 30.28"   Gusts: NA
Location:  40.2616°N, 75.6182°W
Report Text: KPTW 222354Z AUTO 21003KT 10SM BKN060 OVC090 04/M07 A3028 RMK AO2 RAB07E19 SLP256 P0000 60000 T00441067 10061 20044 58006
Loading
Personal Weather Stations






























Interactive Weather Map New forecast layout! Learn more

10-Day Weather Forecast

Advertisements
Track Severe Weather on mobile